Delta Virtual Airport Information Service

Baltimore Washington International Airport

ICAO: KBWI Country: United States
Latitude: 39.1754 Longitude: -76.6683
Latest Arrival : SWA353361 (KMDW-KBWI) Latest Departure : FDX752 (B) (KBWI-KJFK)


WX CaptureLIVE
Data provided by noaa.gov | Fetched at 16:54:14

METAR : KBWI 242054Z 09007KT 10SM OVC017 18/13 A3019 RMK AO2 SLP224 T01780133 56007

TAF : KBWI 242057Z 2421/2524 09010KT P6SM SCT021 BKN026 FM250400 10005KT P6SM OVC015 FM250600 VRB03KT 6SM BR OVC008 FM251500 13005KT P6SM BKN015 FM251800 13006KT P6SM SCT020


Runway Data for KBWI
Data provided by openaviationdata.com

Runway ID Mag Var Hdg Length Elevation Surface ILS Freq ILS Id ILS Slope
4 -11 44° 6002 ft 146 ft Asphalt -- -- --
10 -11 105° 10489 ft 146 ft Asphalt 109.7 IBAL 3
15L -11 155° 5000 ft 146 ft Asphalt 111.95 IUQC 3
15R -11 155° 9503 ft 146 ft Asphalt 111.7 IFND 3
22 -11 224° 6002 ft 146 ft Asphalt -- -- --
28 -11 285° 10489 ft 146 ft Asphalt 109.7 IOEH 3
33L -11 335° 9503 ft 146 ft Asphalt 111.7 IRUX 3
33R -11 335° 5000 ft 146 ft Asphalt 111.95 IBWI 3

Baltimore Washington International Airport, United States
Use only for reference purposes



Not for navigational purposes.